createdAt,value
2019-03-22T14:48:39.251Z,3.3
2019-03-22T14:50:40.704Z,3.3
2019-03-22T14:52:42.143Z,3
2019-03-22T14:54:43.601Z,3
2019-03-22T14:56:45.054Z,3.5
2019-03-22T14:58:46.508Z,3.6
2019-03-22T15:00:47.968Z,3.1
2019-03-22T15:02:49.426Z,3.1
2019-03-22T15:04:50.863Z,3.2
2019-03-22T15:06:52.227Z,3.3
2019-03-22T15:08:53.671Z,2.9
2019-03-22T15:10:55.053Z,2.7
2019-03-22T15:12:56.407Z,2.3
2019-03-22T15:14:57.858Z,2.4
2019-03-22T15:16:59.362Z,2.5
2019-03-22T15:19:15.832Z,2.2
2019-03-22T15:21:17.256Z,2.3
2019-03-22T15:23:18.714Z,2.3
2019-03-22T15:25:20.167Z,2.1
2019-03-22T15:27:21.623Z,2.1
2019-03-22T15:29:23.074Z,2
2019-03-22T15:31:24.526Z,2.1
2019-03-22T15:33:35.009Z,1.9
2019-03-22T15:35:36.676Z,2.2
2019-03-22T15:37:38.122Z,2.1
2019-03-22T15:39:39.596Z,2.4
2019-03-22T15:41:41.038Z,1.8
2019-03-22T15:43:42.487Z,1.8
2019-03-22T15:45:43.922Z,1.9
2019-03-22T15:47:45.386Z,2.2
2019-03-22T15:49:46.828Z,2.1
2019-03-22T15:51:49.001Z,1.9
2019-03-22T15:53:50.438Z,2
2019-03-22T15:55:51.887Z,2
2019-03-22T15:57:53.344Z,2
2019-03-22T15:59:54.698Z,1.9
2019-03-22T16:01:56.061Z,2.2
2019-03-22T16:03:57.519Z,2.3
2019-03-22T16:05:58.978Z,1.8
2019-03-22T16:08:00.354Z,2.2
2019-03-22T16:10:01.735Z,1.8
2019-03-22T16:12:03.172Z,1.9
2019-03-22T16:14:04.729Z,1.5
2019-03-22T16:16:06.097Z,1.8
2019-03-22T16:18:07.548Z,1.7
2019-03-22T16:20:08.906Z,1.5
2019-03-22T16:22:10.362Z,1.6
2019-03-22T16:24:11.714Z,1.9
2019-03-22T16:26:13.072Z,1.7
2019-03-22T16:28:14.357Z,1.6
2019-03-22T16:30:15.828Z,1.8
2019-03-22T16:32:17.319Z,1.9
2019-03-22T16:34:18.739Z,2.1
2019-03-22T16:36:20.179Z,2
2019-03-22T16:38:21.499Z,2
2019-03-22T16:40:24.713Z,2.4
2019-03-22T16:42:26.109Z,2.2
2019-03-22T16:44:27.460Z,2.3
2019-03-22T16:46:28.828Z,1.9
2019-03-22T16:48:30.275Z,1.8
2019-03-22T16:50:31.752Z,1.8
2019-03-22T16:52:33.201Z,1.9
2019-03-22T16:54:34.597Z,2
2019-03-22T16:56:35.958Z,2
2019-03-22T16:58:37.328Z,2
2019-03-22T17:00:38.774Z,2.8
2019-03-22T17:02:40.132Z,5
2019-03-22T17:04:41.604Z,7
2019-03-22T17:06:43.032Z,8.6
2019-03-22T17:08:44.396Z,4.6
2019-03-22T17:10:45.835Z,6.2
2019-03-22T17:12:47.185Z,5.8
2019-03-22T17:14:48.538Z,5
2019-03-22T17:16:50.005Z,5.3
2019-03-22T17:18:51.447Z,5.1
2019-03-22T17:20:52.901Z,4.3
2019-03-22T17:22:54.303Z,3.6
2019-03-22T17:24:55.749Z,3.2
2019-03-22T17:26:57.096Z,3
2019-03-22T17:28:58.461Z,2.9
2019-03-22T17:30:59.912Z,3.4
2019-03-22T17:33:01.356Z,4.1
2019-03-22T17:35:02.799Z,4.3
2019-03-22T17:37:04.246Z,3.8
2019-03-22T17:39:05.688Z,3.9
2019-03-22T17:41:07.021Z,4.4
2019-03-22T17:43:08.365Z,3.9
2019-03-22T17:45:09.617Z,2.9
2019-03-22T17:47:10.968Z,4
2019-03-22T17:49:12.335Z,3.6
2019-03-22T17:51:13.771Z,2.5
2019-03-22T17:53:15.125Z,3.3
2019-03-22T17:55:16.563Z,4.4
2019-03-22T17:57:19.159Z,6.9
2019-03-22T17:59:20.559Z,13
2019-03-22T18:01:21.906Z,13
2019-03-22T18:03:23.244Z,13.2
2019-03-22T18:05:24.595Z,17.8
2019-03-22T18:07:26.040Z,18.7
2019-03-22T18:09:27.397Z,13.8
2019-03-22T18:11:28.829Z,10.8
2019-03-22T18:13:30.174Z,9.3
2019-03-22T18:15:31.523Z,7.3
2019-03-22T18:17:32.966Z,6.3
2019-03-22T18:19:34.432Z,11.2
2019-03-22T18:21:35.845Z,9.4
2019-03-22T18:23:37.308Z,8.9
2019-03-22T18:25:38.770Z,7
2019-03-22T18:27:40.181Z,7.3
2019-03-22T18:29:41.635Z,5.6
2019-03-22T18:31:43.040Z,5.5
2019-03-22T18:33:44.466Z,4.7
2019-03-22T18:35:45.893Z,3.9
2019-03-22T18:37:47.241Z,3.6
2019-03-22T18:39:48.677Z,3.6
2019-03-22T18:41:50.030Z,3.3
2019-03-22T18:43:51.457Z,3.5
2019-03-22T18:45:52.798Z,3.1
2019-03-22T18:47:54.133Z,3.3
2019-03-22T18:49:55.477Z,3
2019-03-22T18:51:56.923Z,3.6
2019-03-22T18:53:58.282Z,3.5
2019-03-22T18:55:59.626Z,3.3
2019-03-22T18:58:00.986Z,3.4
2019-03-22T19:00:02.299Z,3
2019-03-22T19:02:03.719Z,3
2019-03-22T19:04:05.063Z,3.1
2019-03-22T19:06:06.405Z,3.2
2019-03-22T19:08:07.663Z,3.5
2019-03-22T19:10:09.027Z,3.8
2019-03-22T19:12:10.439Z,3.6
2019-03-22T19:14:11.880Z,3.3
2019-03-22T19:16:13.314Z,3.4
2019-03-22T19:18:14.653Z,3
2019-03-22T19:20:15.985Z,3.1
2019-03-22T19:22:17.414Z,3.1
2019-03-22T19:24:18.757Z,3
2019-03-22T19:26:20.191Z,3.2
2019-03-22T19:28:21.522Z,3.3
2019-03-22T19:30:22.968Z,3.3
2019-03-22T19:32:24.311Z,3.2
2019-03-22T19:34:25.655Z,3.5
2019-03-22T19:36:27.023Z,5.4
2019-03-22T19:38:28.482Z,3.3
2019-03-22T19:40:30.535Z,3.1
2019-03-22T19:42:32.023Z,3.2
2019-03-22T19:44:33.361Z,3.4
2019-03-22T19:46:34.705Z,3.5
2019-03-22T19:48:36.142Z,3.4
2019-03-22T19:50:37.572Z,3.4
2019-03-22T19:52:38.911Z,3.1
2019-03-22T19:54:40.216Z,3.1
2019-03-22T19:56:41.645Z,3
2019-03-22T19:58:42.991Z,3.7
2019-03-22T20:00:44.324Z,3.2
2019-03-22T20:02:45.702Z,3.1
2019-03-22T20:04:47.117Z,3
2019-03-22T20:06:48.538Z,3.1
2019-03-22T20:08:49.878Z,3.2
2019-03-22T20:10:51.326Z,3.3
2019-03-22T20:12:52.762Z,2.6
2019-03-22T20:14:54.210Z,2.9
2019-03-22T20:16:55.639Z,3.1
2019-03-22T20:18:57.071Z,3.1
2019-03-22T20:20:58.501Z,3
2019-03-22T20:22:59.958Z,3
2019-03-22T20:25:01.297Z,2.9
2019-03-22T20:27:02.752Z,2.9
2019-03-22T20:29:04.176Z,2.9
2019-03-22T20:31:05.536Z,3
2019-03-22T20:33:06.986Z,3.1
2019-03-22T20:35:17.097Z,3.2
2019-03-22T20:37:18.585Z,2.9
2019-03-22T20:39:20.005Z,2.6
2019-03-22T20:41:21.343Z,2.9
2019-03-22T20:43:22.781Z,3.7
2019-03-22T20:45:24.708Z,3.2
2019-03-22T20:47:26.094Z,3.3
2019-03-22T20:49:27.348Z,3.2
2019-03-22T20:51:28.598Z,3.6
2019-03-22T20:53:29.854Z,3.5
2019-03-22T20:55:31.219Z,3.5
2019-03-22T20:57:32.550Z,3.3
2019-03-22T20:59:33.844Z,3.6
2019-03-22T21:01:35.288Z,3.4
2019-03-22T21:03:36.716Z,4.1
2019-03-22T21:05:38.103Z,3.7
2019-03-22T21:07:39.546Z,3.5
2019-03-22T21:09:41.014Z,3.3
2019-03-22T21:11:42.345Z,3.3
2019-03-22T21:13:43.605Z,3.1
2019-03-22T21:15:45.039Z,3.4
2019-03-22T21:17:46.451Z,3.7
2019-03-22T21:19:47.792Z,3.8
2019-03-22T21:21:49.224Z,3.9
2019-03-22T21:23:50.554Z,3.5
2019-03-22T21:25:51.847Z,3.4
2019-03-22T21:27:53.217Z,3.3
2019-03-22T21:29:54.611Z,3.5
2019-03-22T21:31:56.033Z,3.3
2019-03-22T21:33:57.395Z,3.6
2019-03-22T21:35:58.786Z,3.5
2019-03-22T21:38:11.241Z,3.5
2019-03-22T21:40:12.773Z,4
2019-03-22T21:42:14.207Z,3.9
2019-03-22T21:44:15.600Z,3.9
2019-03-22T21:46:16.861Z,4
2019-03-22T21:48:18.274Z,3.8
2019-03-22T21:50:19.614Z,3.7
2019-03-22T21:52:20.942Z,4
2019-03-22T21:54:22.312Z,3.6
2019-03-22T21:56:23.653Z,3.8
2019-03-22T21:58:25.031Z,3.6
2019-03-22T22:00:26.331Z,3.9
2019-03-22T22:02:31.269Z,3.5
2019-03-22T22:04:32.701Z,3.5
2019-03-22T22:06:34.203Z,3.8
2019-03-22T22:08:35.564Z,3.6
2019-03-22T22:10:36.994Z,4
2019-03-22T22:12:38.812Z,3.9
2019-03-22T22:14:41.239Z,3.9
2019-03-22T22:16:42.769Z,3.8
2019-03-22T22:18:44.131Z,3.9
2019-03-22T22:20:45.470Z,4.4
2019-03-22T22:22:46.831Z,4.6
2019-03-22T22:24:48.243Z,4.3
2019-03-22T22:26:49.751Z,3.5
2019-03-22T22:28:51.210Z,4
2019-03-22T22:30:52.554Z,3.8
2019-03-22T22:32:54.024Z,4
2019-03-22T22:34:55.420Z,4.2
2019-03-22T22:36:56.753Z,3.9
2019-03-22T22:38:58.157Z,4
2019-03-22T22:40:59.580Z,4.4
2019-03-22T22:43:01.018Z,3.8
2019-03-22T22:45:02.444Z,4.1
2019-03-22T22:47:03.789Z,3.8
2019-03-22T22:49:05.215Z,3.9
2019-03-22T22:51:06.647Z,4.2
2019-03-22T22:53:08.089Z,4.5
2019-03-22T22:55:09.524Z,4.3
2019-03-22T22:57:10.964Z,4.2
2019-03-22T22:59:12.389Z,3.9
2019-03-22T23:01:13.815Z,3.9
2019-03-22T23:03:15.223Z,4.3
2019-03-22T23:05:16.672Z,3.9
2019-03-22T23:07:18.084Z,4.6
2019-03-22T23:09:19.425Z,3.9
2019-03-22T23:11:20.851Z,4.5
2019-03-22T23:13:22.198Z,4.4
2019-03-22T23:15:23.475Z,4.6
2019-03-22T23:17:24.912Z,4.2
2019-03-22T23:19:26.269Z,4.2
2019-03-22T23:21:27.687Z,4.1
2019-03-22T23:23:29.120Z,4.4
2019-03-22T23:25:30.547Z,4.3
2019-03-22T23:27:31.953Z,4.2
2019-03-22T23:29:33.239Z,4.2
2019-03-22T23:31:34.606Z,4.1
2019-03-22T23:33:36.041Z,4.1
2019-03-22T23:35:37.368Z,4.7
2019-03-22T23:37:38.718Z,4.8
2019-03-22T23:39:40.081Z,4.9
2019-03-22T23:41:41.324Z,5.2
2019-03-22T23:43:42.666Z,5.8
2019-03-22T23:45:44.087Z,5.8
2019-03-22T23:47:45.520Z,5.7
2019-03-22T23:49:46.951Z,5.2
2019-03-22T23:51:48.214Z,4.8
2019-03-22T23:53:49.540Z,5.4
2019-03-22T23:55:50.872Z,6.1
2019-03-22T23:57:52.119Z,5.2
2019-03-22T23:59:53.406Z,4.9
